Time;durP1;ratioP1;P1;durP2;ratioP2;P2;SDS_P1;SDS_P2;PMS_P1;PMS_P2;Temp;Humidity;BMP_temperature;BMP_pressure;BME280_temperature;BME280_humidity;BME280_pressure;Samples;Min_cycle;Max_cycle;Signal;HPM_P1;HPM_P2
2022/11/07 00:01:35;;;;;;;17.80;15.95;;;;;;;11.08;78.29;95142.25;5139168;27;20195;-74
2022/11/07 00:04:01;;;;;;;18.33;16.33;;;;;;;11.06;78.50;95135.47;5137842;27;20198;-74
2022/11/07 00:06:28;;;;;;;20.00;17.13;;;;;;;11.06;78.56;95144.53;5138704;27;20191;-74
2022/11/07 00:08:55;;;;;;;19.15;17.15;;;;;;;11.06;78.41;95130.75;5137395;27;20195;-73
2022/11/07 00:11:24;;;;;;;18.73;16.48;;;;;;;11.06;78.62;95135.47;5138502;27;20226;-73
2022/11/07 00:13:50;;;;;;;19.85;16.52;;;;;;;11.03;78.44;95141.69;5137315;27;20207;-73
2022/11/07 00:16:17;;;;;;;17.92;16.13;;;;;;;10.95;77.77;95145.44;5138838;27;20198;-73
2022/11/07 00:18:44;;;;;;;18.95;16.52;;;;;;;10.83;77.56;95147.09;5138122;27;20183;-73
2022/11/07 00:21:10;;;;;;;16.48;14.88;;;;;;;10.82;78.14;95144.66;5138501;27;20199;-73
2022/11/07 00:23:40;;;;;;;18.75;16.90;;;;;;;10.78;78.23;95150.13;5138123;27;20186;-74
2022/11/07 00:26:08;;;;;;;18.52;16.58;;;;;;;10.78;78.51;95141.84;5136937;27;20199;-74
2022/11/07 00:28:37;;;;;;;18.35;16.50;;;;;;;10.75;78.46;95142.53;5119928;27;20198;-74
2022/11/07 00:31:04;;;;;;;18.15;16.25;;;;;;;10.73;78.37;95142.09;5137173;27;20211;-74
2022/11/07 00:33:31;;;;;;;18.60;16.70;;;;;;;10.72;79.16;95154.28;5137408;27;20206;-73
2022/11/07 00:35:58;;;;;;;18.80;16.67;;;;;;;10.75;79.10;95141.75;5137471;27;20296;-74
2022/11/07 00:38:25;;;;;;;20.73;17.17;;;;;;;10.76;79.05;95146.09;5138143;27;20179;-74
2022/11/07 00:40:56;;;;;;;19.08;17.10;;;;;;;10.77;78.82;95147.69;5136605;27;20227;-74
2022/11/07 00:43:23;;;;;;;18.75;16.80;;;;;;;10.79;79.18;95148.97;5138398;27;20184;-74
2022/11/07 00:45:51;;;;;;;19.48;17.52;;;;;;;10.74;79.11;95145.63;5137394;27;20202;-74
2022/11/07 00:48:18;;;;;;;18.55;16.73;;;;;;;10.73;79.17;95153.13;5137373;27;20187;-74
2022/11/07 00:50:45;;;;;;;19.52;17.60;;;;;;;10.77;79.27;95147.69;5137732;27;20187;-74
2022/11/07 00:53:13;;;;;;;18.55;16.67;;;;;;;10.72;79.42;95148.75;5137496;27;20198;-74
2022/11/07 00:55:40;;;;;;;19.73;17.63;;;;;;;10.72;79.45;95147.97;5137540;27;20565;-74
2022/11/07 00:58:08;;;;;;;18.63;16.50;;;;;;;10.73;79.33;95141.28;5137815;27;20209;-74
2022/11/07 01:00:36;;;;;;;20.95;18.17;;;;;;;10.72;79.12;95134.97;5136457;27;20199;-74
2022/11/07 01:05:56;;;;;;;20.88;17.25;;;;;;;10.53;78.34;95135.63;5137202;27;20261;-74
2022/11/07 01:08:23;;;;;;;18.35;16.45;;;;;;;10.45;78.79;95133.00;5137477;27;20222;-74
2022/11/07 01:10:50;;;;;;;19.45;17.33;;;;;;;10.39;78.11;95129.72;5137357;27;20218;-73
2022/11/07 01:13:17;;;;;;;19.60;17.58;;;;;;;10.33;78.88;95126.38;5137103;27;20194;-74
2022/11/07 01:15:44;;;;;;;18.95;17.10;;;;;;;10.33;78.94;95120.06;5136368;27;20191;-74
2022/11/07 01:18:13;;;;;;;19.15;17.25;;;;;;;10.32;78.83;95119.28;5136382;27;20210;-73
2022/11/07 01:20:40;;;;;;;18.77;16.85;;;;;;;10.31;78.86;95116.84;5137205;27;20194;-74
2022/11/07 01:23:08;;;;;;;18.42;16.52;;;;;;;10.31;78.97;95122.38;5137208;27;20180;-74
2022/11/07 01:25:36;;;;;;;18.23;16.30;;;;;;;10.28;78.99;95115.63;5137398;27;20171;-74
2022/11/07 01:28:03;;;;;;;19.00;17.08;;;;;;;10.27;78.75;95124.22;5136529;27;20202;-74
2022/11/07 01:30:30;;;;;;;18.92;17.02;;;;;;;10.20;78.58;95127.53;5136735;27;20186;-74
2022/11/07 01:32:57;;;;;;;19.25;17.13;;;;;;;10.15;78.70;95129.75;5137025;27;20214;-74
2022/11/07 01:35:25;;;;;;;18.80;17.00;;;;;;;10.10;79.06;95123.34;5136348;27;20202;-74
2022/11/07 01:37:52;;;;;;;19.38;17.38;;;;;;;10.07;79.27;95132.28;5136035;27;20269;-74
2022/11/07 01:40:20;;;;;;;19.58;17.60;;;;;;;10.10;79.23;95122.53;5136894;27;20238;-74
2022/11/07 01:42:47;;;;;;;20.10;16.60;;;;;;;10.11;79.40;95122.16;5135868;27;20191;-74
2022/11/07 01:45:19;;;;;;;18.48;16.52;;;;;;;10.17;79.62;95125.50;5137151;27;20191;-74
2022/11/07 01:47:46;;;;;;;18.95;16.95;;;;;;;10.17;79.30;95131.00;5135919;27;20187;-74
2022/11/07 01:50:13;;;;;;;18.20;16.30;;;;;;;10.17;78.91;95127.44;5136745;27;20183;-74
2022/11/07 01:52:42;;;;;;;19.83;17.35;;;;;;;10.13;79.41;95132.88;5135826;27;20207;-74
2022/11/07 01:55:11;;;;;;;20.50;18.27;;;;;;;10.16;79.79;95128.59;5136872;27;20187;-74
2022/11/07 01:57:40;;;;;;;19.38;17.38;;;;;;;10.14;79.68;95126.19;5137053;27;20252;-74
2022/11/07 02:00:10;;;;;;;20.75;17.88;;;;;;;10.17;79.69;95133.78;5135983;27;20202;-74
2022/11/07 02:02:37;;;;;;;19.73;17.60;;;;;;;10.15;79.98;95135.25;5136539;27;20183;-74
2022/11/07 02:05:06;;;;;;;19.52;17.27;;;;;;;10.18;80.12;95129.84;5135592;27;20607;-74
2022/11/07 02:07:33;;;;;;;19.42;17.35;;;;;;;10.22;80.35;95132.72;5135926;27;20191;-73
2022/11/07 02:10:01;;;;;;;19.50;17.50;;;;;;;10.25;80.02;95137.53;5135683;27;20187;-74
2022/11/07 02:12:29;;;;;;;18.98;17.10;;;;;;;10.22;80.09;95132.72;5136255;27;20199;-74
2022/11/07 02:14:56;;;;;;;18.90;17.00;;;;;;;10.20;79.92;95133.03;5135438;27;20199;-74
2022/11/07 02:17:23;;;;;;;19.20;17.20;;;;;;;10.18;79.72;95134.56;5136505;27;20183;-74
2022/11/07 02:19:52;;;;;;;22.67;17.52;;;;;;;10.16;79.40;95132.13;5136357;27;20199;-74
2022/11/07 02:22:24;;;;;;;20.17;17.80;;;;;;;10.17;79.56;95133.78;5135357;27;20614;-74
2022/11/07 02:24:55;;;;;;;19.17;17.27;;;;;;;10.20;79.53;95140.50;5135318;27;20202;-74
2022/11/07 02:27:24;;;;;;;19.15;17.13;;;;;;;10.15;79.29;95140.78;5135120;28;20603;-74
2022/11/07 02:29:53;;;;;;;19.77;17.75;;;;;;;10.10;79.36;95142.63;5136194;27;20179;-74
2022/11/07 02:32:20;;;;;;;20.40;17.52;;;;;;;10.07;79.49;95132.28;5136055;27;20237;-74
2022/11/07 02:34:55;;;;;;;20.05;17.88;;;;;;;10.11;79.76;95137.91;5136221;27;20179;-74
2022/11/07 02:37:25;;;;;;;19.33;17.23;;;;;;;10.13;79.69;95130.91;5135095;28;20594;-74
2022/11/07 02:39:53;;;;;;;18.48;16.48;;;;;;;10.11;79.79;95124.94;5135179;28;20226;-74
2022/11/07 02:42:20;;;;;;;20.08;17.33;;;;;;;10.12;79.66;95134.78;5135198;28;20211;-74
2022/11/07 02:44:47;;;;;;;20.08;17.95;;;;;;;10.10;79.29;95137.09;5135057;28;20199;-74
2022/11/07 02:47:14;;;;;;;19.45;17.25;;;;;;;10.03;78.96;95133.34;5134950;28;20195;-74
2022/11/07 02:49:41;;;;;;;23.27;18.05;;;;;;;10.01;78.91;95135.63;5135038;27;20198;-74
2022/11/07 02:52:08;;;;;;;19.85;17.42;;;;;;;10.04;78.96;95126.66;5139166;27;20218;-74
2022/11/07 02:54:35;;;;;;;19.95;17.95;;;;;;;10.04;78.82;95121.97;5139319;27;20194;-74
2022/11/07 02:57:04;;;;;;;20.05;17.98;;;;;;;10.02;78.74;95126.19;5139016;27;20194;-74
2022/11/07 02:59:31;;;;;;;20.30;17.38;;;;;;;9.97;78.69;95126.47;5139837;27;20294;-74
2022/11/07 03:01:58;;;;;;;20.05;17.92;;;;;;;9.99;78.95;95129.69;5140358;27;20195;-74
2022/11/07 03:04:24;;;;;;;20.05;17.38;;;;;;;9.99;79.09;95126.91;5139257;27;20183;-74
2022/11/07 03:06:52;;;;;;;19.38;17.38;;;;;;;10.00;79.28;95134.81;5139553;27;20195;-74
2022/11/07 03:09:19;;;;;;;19.88;17.85;;;;;;;9.95;78.88;95132.31;5139136;27;20255;-74
2022/11/07 03:11:46;;;;;;;18.83;16.85;;;;;;;9.88;78.92;95132.91;5139535;27;20184;-74
2022/11/07 03:14:14;;;;;;;20.23;16.95;;;;;;;9.85;78.82;95135.56;5138925;27;20202;-74
2022/11/07 03:16:41;;;;;;;19.08;17.27;;;;;;;9.81;78.87;95137.41;5138751;27;20191;-74
2022/11/07 03:19:07;;;;;;;20.23;18.17;;;;;;;9.81;78.87;95142.91;5139021;27;20195;-74
2022/11/07 03:21:34;;;;;;;19.60;17.55;;;;;;;9.82;79.34;95136.25;5139256;27;20191;-74
2022/11/07 03:24:01;;;;;;;20.98;18.65;;;;;;;9.76;79.45;95143.91;5138743;27;20199;-74
2022/11/07 03:26:27;;;;;;;22.63;20.23;;;;;;;9.76;79.58;95151.38;5138915;27;20210;-74
2022/11/07 03:28:55;;;;;;;22.08;18.85;;;;;;;9.80;79.52;95152.28;5139168;27;20595;-74
2022/11/07 03:31:23;;;;;;;19.95;17.85;;;;;;;9.82;79.50;95156.31;5139044;27;20666;-74
2022/11/07 03:33:50;;;;;;;20.88;18.65;;;;;;;9.82;79.55;95159.06;5138098;27;20682;-74
2022/11/07 03:36:17;;;;;;;20.75;18.70;;;;;;;9.82;80.03;95155.53;5139451;27;20183;-74
2022/11/07 03:38:44;;;;;;;19.77;17.67;;;;;;;9.82;79.79;95166.53;5138318;27;20195;-74
2022/11/07 03:41:15;;;;;;;21.77;18.30;;;;;;;9.72;78.85;95167.00;5139027;27;20579;-73
2022/11/07 03:43:43;;;;;;;21.73;18.88;;;;;;;9.68;78.91;95164.13;5138814;27;20191;-73
2022/11/07 03:46:10;;;;;;;21.60;19.30;;;;;;;9.66;78.88;95171.94;5139109;27;20252;-73
2022/11/07 03:48:38;;;;;;;24.95;19.27;;;;;;;9.60;78.82;95168.59;5138225;27;20198;-74
2022/11/07 03:51:05;;;;;;;21.73;19.42;;;;;;;9.60;79.40;95176.88;5138984;27;20196;-74
2022/11/07 03:53:33;;;;;;;21.65;18.95;;;;;;;9.62;79.06;95182.03;5137958;27;20207;-74
2022/11/07 03:56:00;;;;;;;23.15;18.40;;;;;;;9.61;79.07;95186.72;5138398;27;20195;-74
2022/11/07 03:58:27;;;;;;;20.92;18.25;;;;;;;9.55;78.91;95177.09;5138057;27;20198;-74
2022/11/07 04:00:53;;;;;;;20.35;18.25;;;;;;;9.51;79.02;95187.19;5138782;27;20206;-73
2022/11/07 04:03:20;;;;;;;21.08;18.70;;;;;;;9.52;79.58;95188.00;5137921;27;20203;-73
2022/11/07 04:05:48;;;;;;;20.73;18.35;;;;;;;9.47;79.65;95179.97;5138738;27;20198;-73
2022/11/07 04:08:15;;;;;;;22.70;20.08;;;;;;;9.51;79.77;95192.69;5138211;27;20187;-73
2022/11/07 04:10:42;;;;;;;22.73;20.33;;;;;;;9.51;80.06;95184.41;5138635;27;20256;-72
2022/11/07 04:18:38;;;;;;;21.73;19.13;;;;;;;9.58;79.87;95187.41;5137638;27;20278;-73
2022/11/07 04:21:06;;;;;;;21.65;19.35;;;;;;;9.56;79.89;95188.94;5138729;27;20187;-72
2022/11/07 04:23:33;;;;;;;20.85;18.70;;;;;;;9.52;79.67;95188.81;5137463;27;20203;-72
2022/11/07 04:28:44;;;;;;;18.77;16.45;;;;;;;9.53;79.58;95195.91;5138162;27;20176;-73
2022/11/07 04:31:11;;;;;;;22.10;17.42;;;;;;;9.56;79.71;95194.44;5137978;27;20560;-73
2022/11/07 04:33:38;;;;;;;21.90;17.58;;;;;;;9.56;79.81;95189.72;5137643;27;20258;-73
2022/11/07 04:36:07;;;;;;;18.40;16.48;;;;;;;9.56;79.58;95197.97;5138446;27;20179;-73
2022/11/07 04:38:35;;;;;;;20.17;18.05;;;;;;;9.59;79.39;95193.75;5138335;27;20247;-73
2022/11/07 04:41:02;;;;;;;17.42;15.60;;;;;;;9.62;79.15;95201.31;5136946;27;20230;-73
2022/11/07 04:43:29;;;;;;;18.73;16.88;;;;;;;9.65;78.96;95197.84;5137961;27;20214;-73
2022/11/07 04:45:56;;;;;;;18.90;16.83;;;;;;;9.63;78.81;95198.22;5137306;27;20203;-72
2022/11/07 04:48:22;;;;;;;18.85;16.60;;;;;;;9.62;78.62;95196.63;5137253;27;20210;-72
2022/11/07 04:50:49;;;;;;;19.27;17.20;;;;;;;9.61;78.56;95197.75;5136554;27;20603;-72
2022/11/07 04:53:18;;;;;;;17.48;15.75;;;;;;;9.69;78.89;95209.00;5137015;27;20207;-74
2022/11/07 04:55:45;;;;;;;18.80;16.65;;;;;;;9.72;78.72;95206.34;5138371;27;20179;-72
2022/11/07 04:58:12;;;;;;;20.65;18.45;;;;;;;9.76;78.85;95211.97;5137909;27;20205;-72
2022/11/07 05:00:39;;;;;;;18.65;16.67;;;;;;;9.73;78.50;95209.91;5136816;27;20202;-72
2022/11/07 05:03:06;;;;;;;18.65;16.77;;;;;;;9.71;78.79;95213.03;5136778;27;20199;-72
2022/11/07 05:05:33;;;;;;;18.55;16.63;;;;;;;9.70;78.60;95210.63;5137287;27;20206;-72
2022/11/07 05:08:01;;;;;;;19.23;17.30;;;;;;;9.68;78.60;95215.66;5136564;27;20199;-72
2022/11/07 05:10:30;;;;;;;18.30;16.42;;;;;;;9.68;78.95;95202.69;5136946;27;20191;-73
2022/11/07 05:12:56;;;;;;;18.23;16.33;;;;;;;9.70;79.00;95211.41;5135845;27;20223;-72
2022/11/07 05:15:23;;;;;;;18.55;16.38;;;;;;;9.74;79.22;95217.03;5137399;27;20187;-72
2022/11/07 05:17:51;;;;;;;18.02;16.23;;;;;;;9.73;79.02;95220.94;5137309;27;20195;-72
2022/11/07 05:20:27;;;;;;;18.38;16.58;;;;;;;9.74;79.16;95230.81;5137250;27;20205;-73
2022/11/07 05:23:13;;;;;;;19.02;16.88;;;;;;;9.74;79.30;95225.31;5137142;27;20244;-72
2022/11/07 05:25:42;;;;;;;21.00;18.02;;;;;;;9.80;79.54;95234.94;5136840;27;20196;-72
2022/11/07 05:28:11;;;;;;;20.85;18.05;;;;;;;9.84;79.44;95233.09;5136248;27;20191;-72
2022/11/07 05:30:39;;;;;;;21.23;17.92;;;;;;;9.82;79.63;95236.22;5137175;27;20602;-72
2022/11/07 05:33:06;;;;;;;20.40;17.92;;;;;;;9.83;79.52;95235.06;5136896;27;20211;-72
2022/11/07 05:35:32;;;;;;;20.75;18.58;;;;;;;9.86;79.52;95245.38;5136141;27;20195;-72
2022/11/07 05:38:00;;;;;;;20.83;18.63;;;;;;;9.89;79.58;95246.66;5136937;27;20187;-72
2022/11/07 05:40:27;;;;;;;21.30;18.50;;;;;;;9.89;79.41;95244.69;5136090;27;20305;-72
2022/11/07 05:43:00;;;;;;;25.27;20.08;;;;;;;9.93;79.66;95250.31;5135652;27;20195;-72
2022/11/07 05:45:28;;;;;;;24.95;19.92;;;;;;;9.98;79.76;95254.81;5135936;27;20225;-72
2022/11/07 05:47:58;;;;;;;22.63;19.85;;;;;;;10.00;79.66;95247.81;5135973;27;20202;-72
2022/11/07 05:50:26;;;;;;;23.35;19.65;;;;;;;10.02;79.78;95258.47;5135661;27;20186;-72
2022/11/07 05:52:54;;;;;;;25.95;21.40;;;;;;;10.04;79.76;95256.19;5136466;27;20430;-71
2022/11/07 05:55:20;;;;;;;23.50;20.63;;;;;;;10.04;79.79;95256.19;5136463;27;20202;-71
2022/11/07 05:57:48;;;;;;;24.13;19.25;;;;;;;10.07;79.28;95264.56;5136590;27;20179;-71
2022/11/07 06:00:17;;;;;;;24.60;17.95;;;;;;;10.12;79.37;95272.59;5135321;27;20208;-71
2022/11/07 06:02:46;;;;;;;24.00;20.83;;;;;;;10.16;79.43;95267.19;5136630;27;20175;-72
2022/11/07 06:05:13;;;;;;;25.15;20.80;;;;;;;10.19;79.43;95272.03;5136496;27;20202;-71
2022/11/07 06:07:40;;;;;;;23.70;19.05;;;;;;;10.24;79.69;95270.97;5136354;27;20511;-71
2022/11/07 06:10:08;;;;;;;22.15;18.75;;;;;;;10.26;79.54;95263.22;5135777;27;20285;-72
2022/11/07 06:12:35;;;;;;;21.17;18.88;;;;;;;10.30;79.85;95270.44;5136380;27;20190;-71
2022/11/07 06:15:02;;;;;;;21.50;19.30;;;;;;;10.35;79.54;95267.47;5135332;27;20205;-71
2022/11/07 06:17:30;;;;;;;23.38;20.85;;;;;;;10.40;79.75;95274.69;5135148;27;20569;-71
2022/11/07 06:19:57;;;;;;;21.40;18.92;;;;;;;10.46;79.93;95278.81;5136653;27;20226;-71
2022/11/07 06:22:24;;;;;;;20.92;18.75;;;;;;;10.49;79.78;95282.81;5135629;27;20199;-71
2022/11/07 06:24:51;;;;;;;23.15;20.65;;;;;;;10.53;79.72;95279.03;5134180;27;20198;-71
2022/11/07 06:27:18;;;;;;;23.33;19.98;;;;;;;10.58;80.08;95283.50;5136226;27;20253;-71
2022/11/07 06:29:44;;;;;;;21.63;19.48;;;;;;;10.59;80.01;95285.91;5135869;27;20512;-71
2022/11/07 06:32:11;;;;;;;22.65;20.08;;;;;;;10.62;80.12;95289.94;5135289;28;20595;-71
2022/11/07 06:34:39;;;;;;;23.00;20.48;;;;;;;10.66;79.85;95296.34;5135161;28;20218;-71
2022/11/07 06:37:06;;;;;;;24.20;20.80;;;;;;;10.68;80.14;95299.59;5135786;27;20510;-71
2022/11/07 06:39:33;;;;;;;24.65;21.73;;;;;;;10.72;80.17;95299.69;5136788;27;20238;-71
2022/11/07 06:42:00;;;;;;;25.23;21.00;;;;;;;10.73;80.34;95298.53;5135483;28;20202;-71
2022/11/07 06:44:26;;;;;;;24.55;21.92;;;;;;;10.75;80.25;95301.75;5135948;27;20180;-71
2022/11/07 06:46:54;;;;;;;25.58;22.58;;;;;;;10.80;80.64;95307.03;5135070;28;20206;-71
2022/11/07 06:49:21;;;;;;;23.95;19.17;;;;;;;10.87;80.75;95314.72;5135270;28;20206;-71
2022/11/07 06:51:50;;;;;;;25.77;21.15;;;;;;;10.92;80.93;95312.50;5135111;28;20555;-72
2022/11/07 06:54:17;;;;;;;32.65;27.33;;;;;;;10.97;80.66;95317.78;5135978;27;20199;-72
2022/11/07 06:56:44;;;;;;;33.28;29.77;;;;;;;11.00;80.86;95317.09;5135161;28;20214;-71
2022/11/07 06:59:11;;;;;;;39.05;34.22;;;;;;;11.04;80.97;95322.72;5135277;28;20191;-72
2022/11/07 07:01:39;;;;;;;39.58;35.40;;;;;;;11.05;81.14;95327.88;5135074;28;20203;-71
2022/11/07 07:04:06;;;;;;;36.20;32.00;;;;;;;11.07;81.38;95324.75;5135606;27;20179;-71
2022/11/07 07:06:33;;;;;;;38.03;33.85;;;;;;;11.12;81.26;95323.72;5135102;28;20205;-71
2022/11/07 07:09:01;;;;;;;38.10;33.20;;;;;;;11.12;81.40;95320.97;5134913;28;20202;-71
2022/11/07 07:11:28;;;;;;;35.22;31.02;;;;;;;11.14;81.37;95319.44;5135955;27;20210;-71
2022/11/07 07:13:55;;;;;;;34.03;30.38;;;;;;;11.17;80.87;95318.75;5134765;28;20211;-71
2022/11/07 07:16:22;;;;;;;37.13;31.00;;;;;;;11.18;80.86;95323.09;5134951;28;20198;-71
2022/11/07 07:18:49;;;;;;;36.55;30.23;;;;;;;11.19;81.01;95321.97;5134528;28;20247;-71
2022/11/07 07:21:16;;;;;;;34.95;30.42;;;;;;;11.21;80.90;95330.69;5135912;27;20175;-71
2022/11/07 07:23:43;;;;;;;35.47;30.95;;;;;;;11.22;80.89;95325.97;5135639;27;20202;-72
2022/11/07 07:26:12;;;;;;;37.78;32.45;;;;;;;11.24;81.02;95318.94;5135073;28;20206;-71
2022/11/07 07:28:39;;;;;;;35.30;30.02;;;;;;;11.31;81.38;95326.63;5134773;28;20203;-71
2022/11/07 07:31:16;;;;;;;34.38;30.52;;;;;;;11.36;81.25;95328.34;5135839;27;20183;-71
2022/11/07 07:33:44;;;;;;;36.72;30.35;;;;;;;11.38;81.35;95324.09;5135665;27;20634;-71
2022/11/07 07:36:11;;;;;;;32.92;29.30;;;;;;;11.39;81.38;95320.16;5136147;27;20175;-71
2022/11/07 07:38:38;;;;;;;34.92;31.02;;;;;;;11.40;80.98;95320.97;5138068;27;20203;-71
2022/11/07 07:41:06;;;;;;;34.63;30.15;;;;;;;11.43;81.00;95323.81;5138643;27;20226;-71
2022/11/07 07:43:34;;;;;;;29.60;25.05;;;;;;;11.48;80.77;95322.78;5138578;27;20206;-71
2022/11/07 07:46:02;;;;;;;36.53;31.67;;;;;;;11.50;80.97;95332.31;5139074;27;20194;-71
2022/11/07 07:48:30;;;;;;;36.53;32.72;;;;;;;11.55;80.81;95328.50;5138204;27;20315;-71
2022/11/07 07:50:57;;;;;;;41.22;36.75;;;;;;;11.60;80.80;95324.69;5138030;27;20203;-72
2022/11/07 07:53:24;;;;;;;41.80;37.25;;;;;;;11.60;81.28;95324.69;5138092;27;20299;-71
2022/11/07 07:55:56;;;;;;;40.33;36.00;;;;;;;11.61;80.62;95334.56;5138102;27;20645;-71
2022/11/07 07:58:23;;;;;;;38.42;34.45;;;;;;;11.62;80.63;95320.41;5138651;27;20221;-72
2022/11/07 08:00:53;;;;;;;38.20;34.05;;;;;;;11.64;80.77;95318.09;5137904;27;20199;-72
2022/11/07 08:03:20;;;;;;;38.95;34.85;;;;;;;11.65;81.13;95333.50;5138442;27;20225;-72
2022/11/07 08:05:52;;;;;;;34.63;30.35;;;;;;;11.65;80.89;95322.44;5138901;27;20187;-71
2022/11/07 08:08:19;;;;;;;29.17;26.10;;;;;;;11.65;80.93;95321.63;5137815;27;20585;-71
2022/11/07 08:10:52;;;;;;;27.50;23.30;;;;;;;11.68;81.01;95332.00;5138675;27;20228;-71
2022/11/07 08:13:19;;;;;;;27.60;23.85;;;;;;;11.68;81.42;95324.50;5138539;27;20235;-71
2022/11/07 08:15:45;;;;;;;27.08;23.40;;;;;;;11.69;80.85;95326.13;5138202;27;20225;-71
2022/11/07 08:18:13;;;;;;;27.70;24.10;;;;;;;11.72;81.18;95325.41;5137878;27;20187;-71
2022/11/07 08:20:40;;;;;;;27.92;24.08;;;;;;;11.78;81.33;95324.00;5138277;27;20194;-71
2022/11/07 08:23:08;;;;;;;26.92;23.52;;;;;;;11.82;81.52;95313.03;5137577;27;20195;-72
2022/11/07 08:25:35;;;;;;;27.58;24.40;;;;;;;11.87;81.18;95318.31;5138012;27;20183;-71
2022/11/07 08:28:03;;;;;;;29.45;25.92;;;;;;;11.93;81.39;95324.41;5138403;27;20199;-72
2022/11/07 08:30:30;;;;;;;33.63;25.10;;;;;;;11.95;80.87;95316.56;5138340;27;20175;-72
2022/11/07 08:32:59;;;;;;;29.00;23.65;;;;;;;11.95;80.52;95320.13;5137862;27;20220;-71
2022/11/07 08:35:28;;;;;;;27.38;23.17;;;;;;;12.00;80.91;95327.34;5138345;27;20204;-71
2022/11/07 08:37:55;;;;;;;27.02;23.52;;;;;;;12.07;80.66;95321.19;5137218;27;20203;-71
2022/11/07 08:40:22;;;;;;;26.45;23.08;;;;;;;12.08;80.64;95320.84;5136828;27;20646;-71
2022/11/07 08:42:49;;;;;;;24.90;22.20;;;;;;;12.13;80.40;95328.03;5137746;27;20183;-71
2022/11/07 08:45:16;;;;;;;31.60;23.23;;;;;;;12.15;80.06;95329.31;5137442;27;20199;-72
2022/11/07 08:47:43;;;;;;;29.33;23.05;;;;;;;12.29;80.33;95318.59;5137109;27;20175;-72
2022/11/07 08:50:10;;;;;;;25.90;23.10;;;;;;;12.55;79.60;95322.78;5137834;27;20179;-72
2022/11/07 08:52:39;;;;;;;30.27;23.15;;;;;;;12.73;78.18;95325.94;5137792;27;20195;-71
2022/11/07 08:55:07;;;;;;;30.23;23.35;;;;;;;12.81;77.87;95327.72;5136814;27;20218;-72
2022/11/07 08:57:34;;;;;;;28.33;23.33;;;;;;;12.86;78.19;95319.16;5138134;27;20194;-72
2022/11/07 09:00:01;;;;;;;27.63;22.95;;;;;;;12.92;78.00;95327.94;5137689;27;20203;-72
2022/11/07 09:02:28;;;;;;;28.75;22.88;;;;;;;12.96;77.43;95329.66;5136860;27;20187;-71
2022/11/07 09:04:55;;;;;;;27.05;23.60;;;;;;;12.96;77.04;95326.06;5137602;27;20194;-71
2022/11/07 09:07:22;;;;;;;28.42;22.75;;;;;;;12.93;77.04;95330.38;5137378;27;20634;-71
2022/11/07 09:09:50;;;;;;;23.55;19.75;;;;;;;12.87;75.57;95336.56;5137861;27;20190;-71
2022/11/07 09:12:17;;;;;;;23.92;20.60;;;;;;;12.82;75.93;95325.75;5137481;27;20187;-72
2022/11/07 09:14:43;;;;;;;25.77;20.08;;;;;;;12.83;76.65;95321.84;5137044;27;20593;-72
2022/11/07 09:17:10;;;;;;;26.90;20.98;;;;;;;12.88;76.96;95321.53;5136396;27;20529;-72
2022/11/07 09:19:37;;;;;;;23.55;20.38;;;;;;;12.93;75.90;95318.50;5136447;27;20202;-71
2022/11/07 09:22:03;;;;;;;26.83;20.58;;;;;;;12.95;75.50;95328.03;5137040;27;20656;-72
2022/11/07 09:24:30;;;;;;;26.90;21.70;;;;;;;12.95;74.79;95327.22;5137369;27;20179;-71
2022/11/07 09:26:59;;;;;;;24.83;21.50;;;;;;;12.93;74.29;95322.06;5136302;27;20220;-71
2022/11/07 09:29:26;;;;;;;26.65;22.27;;;;;;;12.93;73.78;95321.28;5137139;27;20198;-71
2022/11/07 09:31:53;;;;;;;22.13;19.05;;;;;;;12.91;72.30;95321.63;5137099;27;20194;-71
2022/11/07 09:34:20;;;;;;;21.08;18.48;;;;;;;12.90;72.12;95322.78;5136111;27;20215;-71
2022/11/07 09:36:46;;;;;;;22.60;17.95;;;;;;;12.91;71.06;95315.28;5136064;27;20198;-72
2022/11/07 09:39:14;;;;;;;20.35;17.85;;;;;;;12.95;71.75;95310.63;5135570;27;20234;-70
2022/11/07 09:41:49;;;;;;;21.58;18.08;;;;;;;12.97;71.18;95311.06;5136165;27;20187;-70
2022/11/07 09:44:44;;;;;;;21.90;17.23;;;;;;;12.95;70.51;95305.09;5136571;27;20626;-70
2022/11/07 09:47:18;;;;;;;21.15;17.67;;;;;;;12.92;70.99;95306.59;5136771;27;20198;-70
2022/11/07 09:49:47;;;;;;;23.85;18.98;;;;;;;12.96;70.55;95315.00;5137059;27;20183;-70
2022/11/07 09:52:17;;;;;;;23.13;19.23;;;;;;;12.97;69.77;95305.53;5135834;27;20191;-70
2022/11/07 09:54:49;;;;;;;22.63;18.33;;;;;;;12.96;70.03;95307.50;5135847;27;20215;-71
2022/11/07 09:57:18;;;;;;;20.83;17.30;;;;;;;12.97;69.82;95308.31;5137119;27;20202;-70
2022/11/07 09:59:50;;;;;;;18.60;16.60;;;;;;;12.95;69.19;95308.66;5135618;27;20183;-71
2022/11/07 10:02:19;;;;;;;17.77;15.98;;;;;;;12.93;68.25;95308.22;5135811;27;20198;-70
2022/11/07 10:04:47;;;;;;;18.67;16.67;;;;;;;12.94;68.63;95311.78;5136616;27;20194;-70
2022/11/07 10:07:20;;;;;;;18.60;16.55;;;;;;;12.97;68.24;95297.22;5136425;27;20198;-69
2022/11/07 10:09:52;;;;;;;18.52;16.23;;;;;;;13.00;68.86;95293.75;5135950;27;20507;-70
2022/11/07 10:12:30;;;;;;;19.55;16.98;;;;;;;13.06;68.53;95299.78;5135797;27;20191;-71
2022/11/07 10:15:04;;;;;;;19.30;16.20;;;;;;;13.09;68.78;95297.09;5135542;27;20275;-69
2022/11/07 10:17:36;;;;;;;19.10;16.65;;;;;;;13.13;68.62;95297.16;5136641;27;20183;-70
2022/11/07 10:20:14;;;;;;;20.75;16.77;;;;;;;13.21;69.54;95298.91;5135188;27;20191;-70
2022/11/07 10:22:49;;;;;;;20.45;17.15;;;;;;;13.24;68.85;95289.91;5135551;27;20190;-70
2022/11/07 10:25:20;;;;;;;19.33;17.40;;;;;;;13.30;68.51;95293.19;5136129;27;20187;-70
2022/11/07 10:27:52;;;;;;;21.58;16.83;;;;;;;13.33;68.89;95287.72;5136111;27;20492;-70
2022/11/07 10:30:21;;;;;;;20.40;16.70;;;;;;;13.38;68.31;95281.09;5136109;27;20675;-70
2022/11/07 10:32:54;;;;;;;18.92;16.67;;;;;;;13.41;67.95;95275.63;5134906;28;20195;-70
2022/11/07 10:35:27;;;;;;;21.77;16.83;;;;;;;13.44;67.56;95272.13;5136309;27;20230;-70
2022/11/07 10:37:54;;;;;;;19.20;17.10;;;;;;;13.48;67.68;95261.09;5134880;28;20202;-70
2022/11/07 10:40:22;;;;;;;18.00;15.65;;;;;;;13.58;67.12;95265.22;5135204;28;20287;-71
2022/11/07 10:42:49;;;;;;;17.20;15.38;;;;;;;13.59;66.48;95253.78;5135855;27;20248;-71
2022/11/07 10:45:18;;;;;;;19.52;16.30;;;;;;;13.60;66.32;95255.38;5136541;27;20179;-71
2022/11/07 10:47:57;;;;;;;19.35;15.60;;;;;;;13.72;66.14;95254.41;5136475;27;20199;-73
2022/11/07 10:50:24;;;;;;;19.25;15.90;;;;;;;13.76;66.12;95258.03;5136283;27;20209;-73
2022/11/07 10:52:57;;;;;;;19.70;17.50;;;;;;;13.84;66.10;95257.00;5134614;28;20705;-73
2022/11/07 10:55:25;;;;;;;19.42;16.20;;;;;;;13.93;66.59;95256.75;5135901;27;20297;-73
2022/11/07 10:57:56;;;;;;;18.30;15.82;;;;;;;14.05;65.77;95256.59;5135891;27;20195;-72
2022/11/07 11:00:25;;;;;;;17.17;15.38;;;;;;;14.10;65.77;95238.81;5136073;27;20637;-72
2022/11/07 11:02:53;;;;;;;18.70;16.40;;;;;;;14.14;65.82;95248.78;5135599;27;20199;-72
2022/11/07 11:05:24;;;;;;;17.95;16.15;;;;;;;14.17;64.89;95239.75;5135909;27;20244;-72
2022/11/07 11:07:51;;;;;;;20.60;16.38;;;;;;;14.17;65.50;95241.72;5135325;28;20207;-72
2022/11/07 11:10:20;;;;;;;17.33;15.48;;;;;;;14.23;64.73;95239.41;5134691;27;20191;-72
2022/11/07 11:12:48;;;;;;;17.52;15.10;;;;;;;14.25;64.84;95229.56;5138198;27;20187;-72
2022/11/07 11:15:18;;;;;;;17.90;15.55;;;;;;;14.34;66.35;95232.06;5139253;27;20217;-73
2022/11/07 11:17:45;;;;;;;19.20;15.30;;;;;;;14.45;65.74;95225.50;5139762;27;20512;-72
2022/11/07 11:20:29;;;;;;;18.92;16.80;;;;;;;14.51;65.34;95226.00;5139695;27;20198;-72
2022/11/07 11:22:56;;;;;;;20.55;15.93;;;;;;;14.57;65.40;95226.50;5138124;27;20227;-72
2022/11/07 11:25:24;;;;;;;19.48;16.08;;;;;;;14.61;65.14;95225.38;5139958;27;20202;-72
2022/11/07 11:27:54;;;;;;;18.00;15.10;;;;;;;14.64;64.46;95215.50;5138885;27;20205;-72
2022/11/07 11:30:22;;;;;;;19.00;15.50;;;;;;;14.68;65.03;95214.34;5139454;27;20195;-72
2022/11/07 11:32:51;;;;;;;18.63;15.18;;;;;;;14.70;63.88;95213.97;5139381;27;20187;-72
2022/11/07 11:35:33;;;;;;;19.73;15.63;;;;;;;14.76;64.65;95208.91;5138366;27;20210;-72